Time;durP1;ratioP1;P1;durP2;ratioP2;P2;SDS_P1;SDS_P2;PMS_P1;PMS_P2;Temp;Humidity;BMP_temperature;BMP_pressure;BME280_temperature;BME280_humidity;BME280_pressure;Samples;Min_cycle;Max_cycle;Signal;HPM_P1;HPM_P2
2022/07/31 00:04:16;;;;;;;8.13;7.63;;;;;;;16.21;92.45;100093.53;10418016;28;20442;-73
2022/07/31 00:09:18;;;;;;;10.43;9.57;;;;;;;16.17;92.68;100093.78;10417356;28;20049;-74
2022/07/31 00:14:39;;;;;;;9.98;9.27;;;;;;;16.06;93.77;100099.66;10416901;28;20044;-73
2022/07/31 00:19:41;;;;;;;10.60;9.73;;;;;;;16.13;92.49;100103.69;10416491;28;20046;-73
2022/07/31 00:24:43;;;;;;;8.95;8.45;;;;;;;16.09;91.99;100108.31;10416925;28;20117;-72
2022/07/31 00:29:44;;;;;;;8.32;7.82;;;;;;;16.11;91.67;100105.56;10415766;28;20049;-73
2022/07/31 00:34:46;;;;;;;8.35;7.85;;;;;;;16.10;91.91;100099.41;10398971;28;20050;-73
2022/07/31 00:39:48;;;;;;;7.57;7.10;;;;;;;16.18;91.50;100101.66;10424662;28;20050;-73
2022/07/31 00:44:51;;;;;;;9.90;9.00;;;;;;;16.00;92.24;100099.97;10425207;28;20037;-73
2022/07/31 00:49:53;;;;;;;9.07;8.38;;;;;;;16.01;91.59;100102.53;10424378;28;20488;-74
2022/07/31 00:54:55;;;;;;;8.70;8.15;;;;;;;16.10;91.33;100101.19;10423631;28;20049;-68
2022/07/31 00:59:56;;;;;;;8.70;8.10;;;;;;;16.32;90.46;100099.09;10406182;28;20049;-69
2022/07/31 01:04:58;;;;;;;8.10;7.50;;;;;;;16.24;90.03;100100.44;10405843;28;20058;-69
2022/07/31 01:10:05;;;;;;;7.88;7.38;;;;;;;15.86;92.09;100098.91;10422969;28;20059;-69
2022/07/31 01:15:08;;;;;;;9.73;9.13;;;;;;;15.74;92.90;100101.34;10423060;28;20499;-69
2022/07/31 01:20:10;;;;;;;9.27;8.57;;;;;;;15.61;94.34;100104.59;10423109;28;20049;-68
2022/07/31 01:25:50;;;;;;;9.82;9.23;;;;;;;15.62;95.12;100100.16;10405463;28;20045;-68
2022/07/31 01:31:20;;;;;;;8.55;7.82;;;;;;;15.64;94.00;100107.13;10405986;28;20049;-68
2022/07/31 01:36:33;;;;;;;9.73;9.05;;;;;;;15.75;93.59;100103.91;10404972;28;20045;-68
2022/07/31 01:41:42;;;;;;;9.60;8.88;;;;;;;15.86;92.00;100101.56;10404360;28;20081;-68
2022/07/31 01:46:45;;;;;;;8.70;8.20;;;;;;;15.74;92.89;100107.50;10404012;28;20053;-68
2022/07/31 01:51:49;;;;;;;9.60;8.80;;;;;;;15.93;92.48;100093.28;10404420;28;20511;-68
2022/07/31 01:56:58;;;;;;;9.23;8.60;;;;;;;15.94;90.64;100095.88;10405270;28;20490;-67
2022/07/31 02:02:02;;;;;;;9.85;9.07;;;;;;;15.77;91.81;100101.19;10403716;28;20511;-69
2022/07/31 02:07:07;;;;;;;9.32;8.73;;;;;;;15.65;92.26;100102.69;10403729;28;20132;-69
2022/07/31 02:12:11;;;;;;;9.48;8.88;;;;;;;15.56;92.99;100093.38;10405449;28;20056;-69
2022/07/31 02:17:15;;;;;;;8.35;7.38;;;;;;;15.63;92.40;100089.50;10422683;28;20049;-68
2022/07/31 02:22:43;;;;;;;8.15;7.55;;;;;;;15.70;91.05;100082.09;10423067;28;20461;-68
2022/07/31 02:27:46;;;;;;;8.48;7.88;;;;;;;15.70;91.02;100068.84;10389174;28;20384;-68
2022/07/31 02:33:00;;;;;;;9.15;8.55;;;;;;;15.59;91.55;100069.38;10403224;28;20041;-68
2022/07/31 02:38:03;;;;;;;7.65;7.25;;;;;;;15.63;91.14;100060.34;10403202;28;20045;-68
2022/07/31 02:43:19;;;;;;;9.20;8.43;;;;;;;15.62;91.02;100057.75;10403194;28;20049;-69
2022/07/31 02:48:22;;;;;;;8.27;7.75;;;;;;;15.54;91.22;100066.13;10425307;28;20087;-67
2022/07/31 02:53:26;;;;;;;8.60;7.60;;;;;;;15.52;91.88;100065.31;10393019;28;20038;-67
2022/07/31 02:58:32;;;;;;;;;;;;;;;15.48;91.68;100061.13;10405635;28;20132;-67
2022/07/31 03:03:35;;;;;;;8.07;7.55;;;;;;;15.43;91.81;100055.22;10426031;28;19921;-67
2022/07/31 03:08:37;;;;;;;8.88;8.27;;;;;;;15.46;91.34;100041.81;10406912;28;20104;-68
2022/07/31 03:13:42;;;;;;;7.47;6.88;;;;;;;15.41;91.52;100046.50;10405960;28;20046;-68
2022/07/31 03:18:45;;;;;;;8.05;7.45;;;;;;;15.29;91.50;100042.69;10405555;28;20076;-68
2022/07/31 03:23:48;;;;;;;8.20;7.57;;;;;;;15.33;91.49;100048.69;10422589;28;20044;-68
2022/07/31 03:28:54;;;;;;;8.45;7.47;;;;;;;15.19;92.69;100041.44;10405737;28;20049;-68
2022/07/31 03:33:56;;;;;;;8.18;7.53;;;;;;;15.25;92.02;100038.47;10405909;28;20052;-68
2022/07/31 03:38:58;;;;;;;7.82;7.07;;;;;;;15.24;92.38;100035.91;10407267;28;20045;-68
2022/07/31 03:44:18;;;;;;;7.63;7.07;;;;;;;15.25;92.68;100032.31;10421602;28;20132;-68
2022/07/31 03:49:21;;;;;;;7.47;6.97;;;;;;;15.42;91.38;100034.09;10416632;28;20061;-68
2022/07/31 03:54:24;;;;;;;7.70;7.10;;;;;;;15.56;89.49;100032.44;10416500;28;20045;-68
2022/07/31 03:59:35;;;;;;;7.88;7.22;;;;;;;15.51;89.03;100029.19;10416901;28;20084;-69
2022/07/31 04:04:48;;;;;;;8.60;8.00;;;;;;;15.28;90.75;100043.63;10416905;28;20041;-69
2022/07/31 04:09:50;;;;;;;8.05;7.55;;;;;;;15.23;91.90;100042.13;10415624;28;20041;-69
2022/07/31 04:14:53;;;;;;;8.10;7.60;;;;;;;15.32;91.77;100047.81;10416779;28;20049;-68
2022/07/31 04:19:54;;;;;;;7.90;7.40;;;;;;;15.49;89.64;100046.09;10416551;28;20095;-68
2022/07/31 04:24:56;;;;;;;7.13;6.63;;;;;;;15.41;91.35;100051.78;10415798;28;20508;-68
2022/07/31 04:30:16;;;;;;;6.82;6.32;;;;;;;15.66;89.37;100055.84;10417520;28;20491;-68
2022/07/31 04:35:19;;;;;;;6.20;5.80;;;;;;;15.62;90.66;100052.44;10416107;28;20447;-69
2022/07/31 04:40:21;;;;;;;6.97;6.50;;;;;;;16.18;86.77;100053.91;10416473;28;20092;-68
2022/07/31 04:45:22;;;;;;;7.03;6.43;;;;;;;16.02;87.91;100059.19;10416871;28;20037;-68
2022/07/31 04:50:24;;;;;;;5.30;5.00;;;;;;;16.35;84.50;100061.81;10415077;28;20132;-68
2022/07/31 04:55:30;;;;;;;6.15;5.65;;;;;;;16.40;85.18;100066.84;10416273;28;20050;-68
2022/07/31 05:00:32;;;;;;;5.25;4.85;;;;;;;16.54;84.41;100071.38;10417093;28;20056;-68
2022/07/31 05:05:34;;;;;;;5.07;4.68;;;;;;;16.65;84.16;100066.34;10415944;28;20040;-68
2022/07/31 05:15:59;;;;;;;4.25;3.90;;;;;;;17.36;78.89;100077.31;10413761;28;20045;-68
2022/07/31 05:21:01;;;;;;;3.65;3.35;;;;;;;17.46;77.80;100074.94;10415603;28;20113;-69
2022/07/31 05:26:05;;;;;;;4.38;3.65;;;;;;;17.72;77.05;100077.84;10423043;28;20037;-68
2022/07/31 05:31:08;;;;;;;3.90;3.60;;;;;;;17.75;75.40;100075.00;10421193;28;20064;-68
2022/07/31 05:36:11;;;;;;;3.10;2.90;;;;;;;18.08;73.21;100072.09;10421183;28;20076;-68
2022/07/31 05:41:13;;;;;;;3.33;3.00;;;;;;;18.27;72.86;100074.47;10422532;28;20084;-68
2022/07/31 05:46:33;;;;;;;3.05;2.75;;;;;;;18.65;70.32;100080.88;10423549;28;20046;-68
2022/07/31 05:51:34;;;;;;;3.53;3.05;;;;;;;18.61;71.22;100086.50;10421851;28;20048;-68
2022/07/31 05:56:36;;;;;;;3.67;3.35;;;;;;;18.91;69.69;100086.34;10387546;28;20072;-68
2022/07/31 06:01:38;;;;;;;4.00;2.80;;;;;;;19.42;67.19;100081.16;10403556;28;20053;-68
2022/07/31 06:06:40;;;;;;;4.40;2.60;;;;;;;19.79;65.77;100074.19;10404174;28;20041;-67
2022/07/31 06:11:42;;;;;;;2.60;2.40;;;;;;;20.08;64.46;100073.97;10402826;28;20566;-68
2022/07/31 06:16:44;;;;;;;2.63;2.00;;;;;;;20.49;63.04;100068.34;10402928;28;20095;-68
2022/07/31 06:21:46;;;;;;;2.72;2.50;;;;;;;20.86;61.41;100061.19;10402969;28;20042;-68
2022/07/31 06:26:55;;;;;;;3.88;2.22;;;;;;;21.09;61.22;100059.47;10402466;28;20042;-68
2022/07/31 06:31:58;;;;;;;2.58;2.38;;;;;;;21.41;60.25;100054.38;10402579;28;20049;-68
2022/07/31 06:37:00;;;;;;;2.30;2.10;;;;;;;21.63;59.95;100058.09;10401437;28;20053;-66
2022/07/31 06:42:02;;;;;;;2.90;2.10;;;;;;;22.06;57.60;100052.91;10402504;28;20045;-67
2022/07/31 06:47:04;;;;;;;2.40;2.20;;;;;;;22.37;56.60;100058.53;10420670;28;20053;-67
2022/07/31 06:52:23;;;;;;;2.50;2.22;;;;;;;22.70;55.52;100062.09;10422102;28;20056;-72
2022/07/31 06:57:24;;;;;;;2.00;1.80;;;;;;;22.97;55.60;100062.53;10402097;28;20115;-73
2022/07/31 07:02:26;;;;;;;3.33;2.08;;;;;;;23.18;54.39;100062.59;10419184;28;20038;-71
2022/07/31 07:07:28;;;;;;;3.65;3.00;;;;;;;23.51;53.04;100071.47;10402460;28;20064;-72
2022/07/31 07:12:34;;;;;;;2.50;2.30;;;;;;;23.12;54.08;100079.19;10401357;28;20041;-72
2022/07/31 07:17:35;;;;;;;2.30;1.83;;;;;;;23.50;53.35;100069.75;10400675;28;20053;-72
2022/07/31 07:22:43;;;;;;;5.53;2.30;;;;;;;23.79;52.63;100062.75;10402089;28;20046;-71
2022/07/31 07:27:49;;;;;;;2.22;2.10;;;;;;;24.31;51.21;100054.69;10402149;28;20052;-71
2022/07/31 07:32:51;;;;;;;3.50;2.10;;;;;;;24.13;51.42;100063.38;10399863;28;20041;-71
2022/07/31 07:37:53;;;;;;;3.83;2.55;;;;;;;23.82;51.48;100061.66;10400858;28;20444;-73
2022/07/31 07:42:55;;;;;;;3.45;2.50;;;;;;;23.37;53.30;100054.72;10401651;28;20042;-71
2022/07/31 07:48:04;;;;;;;4.93;2.40;;;;;;;23.76;52.94;100052.28;10400453;28;20051;-70
2022/07/31 07:53:26;;;;;;;3.45;2.35;;;;;;;23.96;51.91;100045.19;10417739;28;20116;-71
2022/07/31 07:58:47;;;;;;;3.13;1.90;;;;;;;23.99;52.00;100027.94;10418964;28;20480;-71
2022/07/31 08:04:08;;;;;;;3.22;2.33;;;;;;;24.57;50.03;100037.09;10417047;28;20128;-71
2022/07/31 08:09:10;;;;;;;4.15;2.28;;;;;;;24.43;50.38;100026.72;10400349;28;20041;-71
2022/07/31 08:14:50;;;;;;;2.55;2.20;;;;;;;24.14;50.98;100024.78;10290782;28;20054;-72
2022/07/31 08:20:14;;;;;;;3.35;2.08;;;;;;;24.65;50.19;100018.41;10273863;28;20062;-71
2022/07/31 08:25:16;;;;;;;2.35;1.73;;;;;;;24.99;48.16;100009.97;10289976;28;20086;-71
2022/07/31 08:30:19;;;;;;;2.65;1.88;;;;;;;25.07;48.11;100007.41;10290311;28;20493;-71
2022/07/31 08:35:22;;;;;;;2.10;1.90;;;;;;;25.29;47.50;100011.69;10291051;28;20126;-70
2022/07/31 08:40:24;;;;;;;3.78;1.80;;;;;;;25.40;46.84;100006.13;10274809;28;20043;-71
2022/07/31 08:45:27;;;;;;;2.22;1.75;;;;;;;25.58;45.66;100016.13;10391492;28;20534;-71
2022/07/31 08:50:46;;;;;;;2.20;2.00;;;;;;;25.96;45.96;100006.28;10432556;28;20045;-71
2022/07/31 08:56:13;;;;;;;2.08;1.85;;;;;;;25.79;45.42;100005.22;10458074;28;20053;-70
2022/07/31 09:01:15;;;;;;;3.22;2.03;;;;;;;25.62;45.84;100001.41;10431776;28;20045;-70
2022/07/31 09:06:17;;;;;;;3.55;1.75;;;;;;;26.12;44.71;100006.50;10406290;28;20136;-70
2022/07/31 09:11:18;;;;;;;2.25;2.05;;;;;;;25.65;45.28;99998.44;10423509;28;20049;-72
2022/07/31 09:16:28;;;;;;;2.95;2.05;;;;;;;26.38;44.80;99990.44;10390469;28;20088;-71
2022/07/31 09:21:39;;;;;;;4.05;1.95;;;;;;;26.56;43.58;99980.59;10422720;28;20046;-73
2022/07/31 09:26:41;;;;;;;2.35;2.10;;;;;;;27.12;42.34;99978.59;10423043;28;20042;-72
2022/07/31 09:31:43;;;;;;;2.28;1.67;;;;;;;27.34;41.17;99971.84;10404544;28;20045;-71
2022/07/31 09:37:10;;;;;;;2.53;1.60;;;;;;;27.71;41.78;99970.72;10404145;28;20198;-72
2022/07/31 09:42:36;;;;;;;1.73;1.63;;;;;;;27.89;41.04;99974.22;10422437;28;20491;-70
2022/07/31 09:47:46;;;;;;;;;;;;;;;27.42;41.35;99961.09;10405098;28;20049;-71
2022/07/31 09:52:57;;;;;;;3.55;1.90;;;;;;;27.07;41.06;99960.16;10404085;28;20355;-71
2022/07/31 09:57:59;;;;;;;2.05;1.73;;;;;;;27.52;39.97;99961.84;10387685;28;20041;-72
2022/07/31 10:03:12;;;;;;;4.25;1.70;;;;;;;27.48;40.03;99956.91;10404382;28;20045;-71
2022/07/31 10:08:16;;;;;;;1.35;1.20;;;;;;;28.08;37.98;99955.06;10405307;28;20095;-71
2022/07/31 10:13:44;;;;;;;1.67;1.55;;;;;;;27.70;39.74;99942.84;10412263;28;20053;-71
2022/07/31 10:18:51;;;;;;;3.05;1.75;;;;;;;28.42;38.60;99951.44;10444408;28;20087;-71
2022/07/31 10:24:30;;;;;;;2.97;1.80;;;;;;;27.28;41.21;99948.19;10444794;28;20128;-71
2022/07/31 10:29:35;;;;;;;3.88;2.08;;;;;;;27.86;41.16;99948.38;10443545;28;20045;-71
2022/07/31 10:34:39;;;;;;;3.35;1.80;;;;;;;27.25;40.87;99943.94;10443042;28;20225;-71
2022/07/31 10:40:14;;;;;;;3.42;2.17;;;;;;;27.79;41.57;99939.22;10454088;28;20053;-71
2022/07/31 10:45:18;;;;;;;2.92;2.03;;;;;;;28.15;39.57;99937.16;10461202;28;20052;-72
2022/07/31 10:50:30;;;;;;;5.13;2.00;;;;;;;27.88;39.96;99940.09;10459084;28;20056;-72
2022/07/31 10:55:39;;;;;;;3.10;2.15;;;;;;;27.64;40.51;99933.56;10460342;28;20415;-71
2022/07/31 11:01:06;;;;;;;2.35;1.70;;;;;;;28.62;39.07;99938.47;10459973;28;20049;-72
2022/07/31 11:06:23;;;;;;;2.95;1.80;;;;;;;27.86;40.19;99936.72;10458732;28;20136;-71
2022/07/31 11:11:32;;;;;;;1.80;1.42;;;;;;;28.14;39.18;99918.41;10459576;28;20045;-72
2022/07/31 11:16:55;;;;;;;2.83;1.98;;;;;;;27.21;40.53;99918.28;10459420;28;20048;-72
2022/07/31 11:22:16;;;;;;;3.63;1.83;;;;;;;28.21;39.40;99913.22;10459654;28;20052;-72
2022/07/31 11:27:33;;;;;;;3.95;1.90;;;;;;;28.26;39.84;99910.84;10457837;28;20057;-71
2022/07/31 11:32:35;;;;;;;2.10;1.77;;;;;;;28.24;39.24;99911.00;10459205;28;20063;-71
2022/07/31 11:37:36;;;;;;;6.18;1.85;;;;;;;27.49;39.21;99910.00;10459228;28;20056;-71
2022/07/31 11:42:48;;;;;;;3.05;1.85;;;;;;;27.36;40.30;99907.78;10459293;28;20045;-71
2022/07/31 11:48:14;;;;;;;2.45;1.73;;;;;;;27.87;38.93;99906.84;10458884;28;20052;-72
2022/07/31 11:53:18;;;;;;;2.75;1.85;;;;;;;27.37;39.82;99904.91;10458202;28;20049;-71
2022/07/31 11:58:21;;;;;;;2.88;1.77;;;;;;;26.60;41.60;99913.72;10459747;28;20510;-70
2022/07/31 12:03:28;;;;;;;2.78;1.50;;;;;;;26.44;41.43;99895.56;10459276;28;20048;-72
2022/07/31 12:08:31;;;;;;;3.17;1.85;;;;;;;26.84;40.54;99905.00;10459501;28;20045;-71
2022/07/31 12:13:32;;;;;;;5.35;1.70;;;;;;;28.32;37.84;99885.84;10460944;28;20044;-71
2022/07/31 12:18:55;;;;;;;3.50;1.85;;;;;;;29.31;36.12;99872.19;10459861;28;20384;-71
2022/07/31 12:23:57;;;;;;;3.40;1.40;;;;;;;29.21;35.10;99881.50;10458044;28;20099;-71
2022/07/31 12:29:04;;;;;;;2.22;1.40;;;;;;;28.45;35.57;99874.59;10459449;28;20076;-71
2022/07/31 12:34:05;;;;;;;2.28;1.38;;;;;;;29.02;35.70;99872.72;10447148;28;20045;-71
2022/07/31 12:39:10;;;;;;;2.05;1.20;;;;;;;29.13;34.16;99872.38;10466434;28;20400;-71
2022/07/31 12:44:12;;;;;;;2.13;1.27;;;;;;;29.32;34.20;99864.91;10466891;28;20045;-71
2022/07/31 12:49:15;;;;;;;1.33;1.08;;;;;;;29.11;33.54;99870.84;10465668;28;20120;-71
2022/07/31 12:54:17;;;;;;;3.00;1.30;;;;;;;29.18;34.11;99866.44;10465689;28;20480;-68
2022/07/31 12:59:19;;;;;;;2.10;1.20;;;;;;;29.44;34.74;99849.97;10464831;28;20052;-68
2022/07/31 13:04:21;;;;;;;1.75;1.20;;;;;;;29.09;33.82;99854.81;10464828;28;20033;-68
2022/07/31 13:09:22;;;;;;;5.88;1.20;;;;;;;29.13;33.63;99834.50;10464632;28;20136;-68
2022/07/31 13:14:24;;;;;;;1.85;1.05;;;;;;;29.13;33.72;99829.09;10464681;28;20040;-69
2022/07/31 13:19:27;;;;;;;3.33;1.27;;;;;;;29.29;34.52;99825.47;10463969;28;20051;-69
2022/07/31 13:24:29;;;;;;;1.75;1.05;;;;;;;29.20;32.98;99818.38;10463875;28;20442;-69
2022/07/31 13:29:30;;;;;;;1.85;1.00;;;;;;;29.33;31.68;99825.97;10435255;28;20411;-68
2022/07/31 13:34:32;;;;;;;1.58;1.10;;;;;;;29.19;32.82;99805.03;10422186;28;20519;-69
2022/07/31 13:39:34;;;;;;;3.15;1.20;;;;;;;29.34;32.56;99816.81;10421797;28;20049;-67
2022/07/31 13:44:35;;;;;;;2.03;0.82;;;;;;;29.33;32.95;99807.84;10421632;28;20408;-67
2022/07/31 13:49:38;;;;;;;2.13;0.90;;;;;;;28.81;33.20;99807.47;10422162;28;20060;-69
2022/07/31 13:54:39;;;;;;;1.50;1.17;;;;;;;28.80;33.00;99793.09;10421965;28;20050;-68
2022/07/31 13:59:41;;;;;;;3.17;0.82;;;;;;;28.57;32.31;99784.84;10422525;28;20052;-68
2022/07/31 14:04:42;;;;;;;1.52;0.90;;;;;;;28.81;32.11;99794.78;10422965;28;20099;-68
2022/07/31 14:09:45;;;;;;;2.83;1.20;;;;;;;28.73;32.53;99784.00;10421541;28;20488;-68
2022/07/31 14:14:56;;;;;;;1.20;0.80;;;;;;;28.97;32.30;99791.22;10422443;28;20069;-68
2022/07/31 14:19:57;;;;;;;2.15;0.80;;;;;;;28.88;32.31;99793.06;10421774;28;20049;-68
2022/07/31 14:24:59;;;;;;;1.92;0.80;;;;;;;28.80;31.96;99792.25;10421299;28;20151;-68
2022/07/31 14:30:01;;;;;;;1.83;0.95;;;;;;;28.71;32.39;99790.56;10421056;28;20046;-68
2022/07/31 14:35:04;;;;;;;2.03;0.80;;;;;;;28.25;32.28;99790.25;10421421;28;20411;-67
2022/07/31 14:40:10;;;;;;;0.90;0.70;;;;;;;28.60;31.73;99779.09;10420538;28;20427;-68
2022/07/31 14:45:11;;;;;;;0.77;0.68;;;;;;;28.52;32.03;99780.97;10420845;28;20074;-67
2022/07/31 14:50:14;;;;;;;1.33;0.70;;;;;;;28.32;31.67;99788.53;10401558;28;20045;-68
2022/07/31 14:55:23;;;;;;;1.02;0.50;;;;;;;28.35;30.70;99777.44;10418308;28;20488;-67
2022/07/31 15:00:24;;;;;;;0.70;0.63;;;;;;;28.35;30.35;99780.13;10418709;28;20041;-68
2022/07/31 15:05:26;;;;;;;0.43;0.32;;;;;;;28.53;29.95;99774.53;10418813;28;20124;-68
2022/07/31 15:10:48;;;;;;;1.90;0.60;;;;;;;28.33;30.74;99782.13;10418993;28;20045;-68
2022/07/31 15:15:49;;;;;;;3.38;0.52;;;;;;;28.30;30.57;99777.91;10419477;28;20038;-69
2022/07/31 15:20:52;;;;;;;0.93;0.60;;;;;;;28.20;30.02;99773.66;10418814;28;20045;-68
2022/07/31 15:25:54;;;;;;;0.70;0.45;;;;;;;27.82;31.35;99773.31;10417271;28;20041;-68
2022/07/31 15:30:56;;;;;;;0.60;0.50;;;;;;;27.78;32.03;99772.78;10417842;28;20091;-68
2022/07/31 15:36:01;;;;;;;0.63;0.50;;;;;;;27.53;32.44;99768.28;10417811;28;20380;-68
2022/07/31 15:41:04;;;;;;;11.27;1.27;;;;;;;27.37;33.16;99764.53;10399682;28;20067;-69
2022/07/31 15:46:07;;;;;;;0.50;0.50;;;;;;;27.56;32.94;99766.13;10417835;28;20044;-69
2022/07/31 15:51:09;;;;;;;2.20;0.70;;;;;;;27.85;33.10;99764.88;10417069;28;20045;-69
2022/07/31 15:56:12;;;;;;;2.38;0.63;;;;;;;28.37;32.59;99764.56;10416647;28;20484;-70
2022/07/31 16:01:13;;;;;;;2.00;0.80;;;;;;;28.66;32.56;99756.78;10416331;28;20462;-70
2022/07/31 16:06:15;;;;;;;3.60;0.70;;;;;;;28.47;32.95;99757.16;10416244;28;20124;-70
2022/07/31 16:11:18;;;;;;;2.08;1.17;;;;;;;28.72;32.86;99751.69;10417436;28;20122;-69
2022/07/31 16:16:20;;;;;;;1.60;0.88;;;;;;;28.36;33.27;99752.91;10416220;28;20054;-69
2022/07/31 16:21:22;;;;;;;1.25;0.90;;;;;;;28.39;33.06;99743.63;10416909;28;20045;-69
2022/07/31 16:26:23;;;;;;;1.40;1.00;;;;;;;28.04;33.34;99750.19;10417030;28;20051;-69
2022/07/31 16:31:25;;;;;;;3.10;1.02;;;;;;;27.64;33.99;99739.13;10418433;28;20045;-71
2022/07/31 16:36:31;;;;;;;1.92;0.80;;;;;;;27.42;34.54;99739.75;10400656;28;20041;-70
2022/07/31 16:41:33;;;;;;;1.73;0.75;;;;;;;27.42;34.95;99734.38;10417195;28;20103;-70
2022/07/31 16:46:34;;;;;;;2.38;0.80;;;;;;;27.43;34.72;99738.75;10416237;28;20038;-70
2022/07/31 16:51:36;;;;;;;1.90;1.10;;;;;;;27.21;34.81;99732.09;10415808;28;20103;-68
2022/07/31 16:56:38;;;;;;;2.72;1.92;;;;;;;27.15;35.24;99730.06;10415561;28;20046;-70
2022/07/31 17:01:39;;;;;;;2.28;0.93;;;;;;;27.11;34.74;99726.84;10415845;28;20051;-70
2022/07/31 17:07:01;;;;;;;11.23;10.63;;;;;;;26.70;35.54;99730.31;10415815;28;20037;-70
2022/07/31 17:12:03;;;;;;;3.05;1.92;;;;;;;26.76;34.92;99726.97;10415823;28;20368;-70
2022/07/31 17:17:06;;;;;;;10.98;10.15;;;;;;;26.73;35.58;99716.50;10415572;28;20041;-70
2022/07/31 17:22:09;;;;;;;3.70;1.75;;;;;;;26.56;35.71;99724.50;10405680;28;20049;-69
2022/07/31 17:27:12;;;;;;;2.10;1.20;;;;;;;26.47;35.99;99722.75;10422303;28;20037;-70
2022/07/31 17:32:13;;;;;;;2.90;0.82;;;;;;;26.23;36.80;99722.53;10422179;28;20043;-70
2022/07/31 17:37:18;;;;;;;1.33;0.98;;;;;;;26.13;36.79;99715.41;10422299;28;20049;-70
2022/07/31 17:42:21;;;;;;;1.58;1.00;;;;;;;26.26;36.22;99720.41;10423978;28;20049;-70
2022/07/31 17:47:25;;;;;;;;;;;;;;;26.28;36.46;99720.22;10420198;28;20048;-70
2022/07/31 17:52:27;;;;;;;1.13;0.60;;;;;;;26.37;35.98;99721.97;10418532;28;19924;-70
2022/07/31 17:57:29;;;;;;;0.60;0.50;;;;;;;26.32;36.05;99722.44;10419532;28;20463;-71
2022/07/31 18:02:31;;;;;;;1.23;0.60;;;;;;;26.08;36.28;99728.50;10421930;28;20045;-70
2022/07/31 18:07:35;;;;;;;1.17;0.52;;;;;;;25.87;37.14;99726.13;10421267;28;20041;-69
2022/07/31 18:12:40;;;;;;;1.45;0.60;;;;;;;25.63;37.84;99736.59;10420972;28;20099;-69
2022/07/31 18:17:58;;;;;;;0.73;0.70;;;;;;;25.73;37.35;99736.56;10421888;28;20120;-69
2022/07/31 18:23:00;;;;;;;1.42;0.90;;;;;;;25.82;37.45;99735.69;10420477;28;20060;-69
2022/07/31 18:28:02;;;;;;;1.23;0.70;;;;;;;25.69;37.56;99733.31;10420008;28;20407;-69
2022/07/31 18:33:04;;;;;;;0.80;0.70;;;;;;;25.73;37.56;99747.34;10420447;28;20496;-69
2022/07/31 18:38:05;;;;;;;0.85;0.70;;;;;;;25.68;37.55;99742.41;10419830;28;20048;-70
2022/07/31 18:43:07;;;;;;;2.92;0.70;;;;;;;25.53;38.05;99744.75;10403272;28;20132;-69
2022/07/31 18:48:09;;;;;;;0.95;0.60;;;;;;;25.24;39.10;99741.41;10403089;28;20480;-70
2022/07/31 18:53:12;;;;;;;1.83;0.70;;;;;;;25.30;39.11;99738.09;10421365;28;20049;-69
2022/07/31 18:58:14;;;;;;;1.67;0.60;;;;;;;25.21;39.15;99739.84;10422654;28;20132;-68
2022/07/31 19:03:17;;;;;;;0.90;0.70;;;;;;;25.09;39.12;99739.19;10422857;28;20049;-69
2022/07/31 19:08:19;;;;;;;0.95;0.60;;;;;;;25.05;39.37;99747.69;10404070;28;20045;-69
2022/07/31 19:13:21;;;;;;;2.17;0.60;;;;;;;24.97;39.97;99750.25;10424018;28;20045;-69
2022/07/31 19:18:23;;;;;;;1.20;0.80;;;;;;;24.80;40.18;99754.59;10423567;28;20402;-69
2022/07/31 19:23:29;;;;;;;1.42;0.68;;;;;;;24.79;40.14;99752.88;10422233;28;20048;-69
2022/07/31 19:28:32;;;;;;;1.10;0.80;;;;;;;24.72;40.62;99754.47;10422029;28;20057;-70
2022/07/31 19:33:34;;;;;;;2.10;1.08;;;;;;;24.72;40.35;99759.84;10372423;28;20096;-69
2022/07/31 19:38:36;;;;;;;0.93;0.70;;;;;;;24.57;41.40;99764.81;10421734;28;20045;-69
2022/07/31 19:43:38;;;;;;;2.15;0.90;;;;;;;24.53;41.37;99771.50;10421688;28;20048;-68
2022/07/31 19:48:44;;;;;;;2.22;0.90;;;;;;;24.62;43.14;99776.84;10421146;28;20411;-69
2022/07/31 19:53:46;;;;;;;2.15;0.90;;;;;;;24.44;44.10;99770.53;10420321;28;20045;-68
2022/07/31 19:58:49;;;;;;;3.63;1.10;;;;;;;24.11;45.40;99764.56;10419997;28;20045;-69
2022/07/31 20:03:56;;;;;;;2.55;1.00;;;;;;;23.99;46.46;99770.22;10401689;28;20046;-69
2022/07/31 20:08:57;;;;;;;2.53;1.10;;;;;;;24.08;46.39;99770.25;10421128;28;20037;-69
2022/07/31 20:13:59;;;;;;;1.52;0.90;;;;;;;24.04;45.37;99765.25;10420244;28;20073;-69
2022/07/31 20:19:01;;;;;;;1.13;0.90;;;;;;;24.07;45.13;99752.41;10418723;28;20135;-69
2022/07/31 20:24:03;;;;;;;1.20;0.95;;;;;;;23.98;45.66;99747.03;10419957;28;20042;-69
2022/07/31 20:29:05;;;;;;;1.33;1.23;;;;;;;23.93;45.68;99750.16;10420254;28;20072;-68
2022/07/31 20:34:07;;;;;;;1.40;1.17;;;;;;;23.81;45.86;99753.94;10420487;28;20045;-69
2022/07/31 20:39:08;;;;;;;1.55;0.90;;;;;;;23.89;45.79;99743.38;10421107;28;20559;-68
2022/07/31 20:44:11;;;;;;;2.33;1.10;;;;;;;23.88;45.67;99737.16;10420669;28;20049;-69
2022/07/31 20:49:13;;;;;;;1.80;1.23;;;;;;;23.88;45.89;99731.78;10402659;28;20049;-69
2022/07/31 20:54:35;;;;;;;1.60;1.10;;;;;;;23.89;45.92;99725.41;10405301;28;20099;-71
2022/07/31 20:59:36;;;;;;;2.25;1.20;;;;;;;23.83;45.99;99728.69;10408795;28;20052;-71
2022/07/31 21:04:38;;;;;;;2.35;1.08;;;;;;;23.90;46.26;99737.00;10425045;28;20515;-71
2022/07/31 21:09:41;;;;;;;1.83;1.30;;;;;;;23.91;46.12;99728.81;10426291;28;20052;-71
2022/07/31 21:14:43;;;;;;;2.40;1.17;;;;;;;23.74;46.59;99724.16;10425228;28;20041;-71
2022/07/31 21:19:44;;;;;;;1.73;1.00;;;;;;;23.80;46.66;99720.06;10406725;28;20048;-71
2022/07/31 21:24:46;;;;;;;2.08;1.13;;;;;;;23.73;47.03;99719.78;10425139;28;20037;-71
2022/07/31 21:29:48;;;;;;;3.28;1.40;;;;;;;23.72;46.88;99725.28;10391091;28;20045;-71
2022/07/31 21:34:57;;;;;;;2.40;1.10;;;;;;;23.80;46.89;99722.75;10423892;28;20044;-71
2022/07/31 21:39:58;;;;;;;1.10;1.00;;;;;;;23.75;46.85;99712.44;10415883;28;20060;-72
2022/07/31 21:45:01;;;;;;;1.48;1.10;;;;;;;23.72;46.98;99722.59;10405242;28;20041;-71
2022/07/31 21:50:06;;;;;;;1.20;1.10;;;;;;;23.58;48.70;99727.34;10424085;28;20128;-71
2022/07/31 21:55:08;;;;;;;1.63;1.25;;;;;;;23.52;49.42;99737.81;10422675;28;20484;-71
2022/07/31 22:00:12;;;;;;;2.15;1.20;;;;;;;23.24;49.93;99734.94;10421485;28;20087;-70
2022/07/31 22:10:35;;;;;;;2.83;1.25;;;;;;;23.27;49.53;99736.47;10422868;28;20045;-70
2022/07/31 22:15:37;;;;;;;2.10;1.00;;;;;;;23.23;49.61;99743.09;10421510;28;20042;-71
2022/07/31 22:21:03;;;;;;;2.15;1.20;;;;;;;23.24;49.41;99745.66;10421727;28;20041;-70
2022/07/31 22:26:05;;;;;;;1.15;1.00;;;;;;;23.13;49.72;99745.75;10421051;28;20045;-70
2022/07/31 22:31:09;;;;;;;1.38;0.90;;;;;;;23.12;49.70;99746.75;10419957;28;20404;-72
2022/07/31 22:36:11;;;;;;;1.85;1.00;;;;;;;23.22;49.25;99752.97;10419854;28;20052;-70
2022/07/31 22:41:13;;;;;;;1.63;0.98;;;;;;;23.28;49.42;99749.72;10403689;28;20502;-70
2022/07/31 22:46:15;;;;;;;2.50;1.23;;;;;;;23.23;49.66;99759.19;10420637;28;20484;-70
2022/07/31 22:51:17;;;;;;;1.92;1.23;;;;;;;23.17;49.62;99756.06;10420060;28;20045;-70
2022/07/31 22:56:19;;;;;;;1.60;1.05;;;;;;;23.14;50.14;99744.75;10420372;28;20045;-70
2022/07/31 23:01:20;;;;;;;1.50;1.17;;;;;;;23.16;50.30;99749.00;10402472;28;20215;-70
2022/07/31 23:06:22;;;;;;;1.33;1.10;;;;;;;22.84;51.62;99743.78;10420035;28;20436;-71
2022/07/31 23:11:32;;;;;;;3.47;1.15;;;;;;;22.85;51.55;99733.91;10419740;28;20045;-71
2022/07/31 23:16:34;;;;;;;1.95;1.38;;;;;;;22.95;51.42;99720.56;10418801;28;20041;-71
2022/07/31 23:21:36;;;;;;;2.03;1.10;;;;;;;22.82;51.63;99734.16;10419018;28;20084;-71
2022/07/31 23:26:38;;;;;;;3.13;1.30;;;;;;;22.63;52.15;99726.88;10418372;28;20117;-71
2022/07/31 23:31:39;;;;;;;1.60;1.10;;;;;;;22.46;52.70;99730.16;10400782;28;20045;-71
2022/07/31 23:36:43;;;;;;;1.27;1.10;;;;;;;22.42;52.62;99737.63;10417288;28;20055;-71
2022/07/31 23:47:05;;;;;;;0.80;0.77;;;;;;;22.59;52.46;99730.81;10417477;28;20076;-71
2022/07/31 23:52:07;;;;;;;1.40;1.30;;;;;;;22.39;53.20;99727.16;10417163;28;20046;-71